Terminal Aerodrome Forecast
Issued by NWS

Home | Current Version | Previous Version | Text Only | Print | Product List | Glossary Off
Versions: 1 2 3 4 5 6 7 8 9 10 11 12 13 14 15 16 17 18 19 20 21 22 23 24 25 26 27 28 29 30 31 32 33 34 35 36 37 38 39 40 41 42 43 44 45 46 47 48 49 50

000
FTUS43 KGRB 181414 AAB
TAFATW
TAF AMD
KATW 181414Z 1814/1912 23010KT 1/4SM FG OVC003
      TEMPO 1814/1815 1SM BR
     FM181500 23009KT 2SM BR OVC004
      TEMPO 1815/1817 4SM BR BKN006
     FM181700 23009KT P6SM SCT006
     FM190000 22008KT P6SM SCT150
     FM190500 23006KT 3SM BR SCT070 SCT150
     FM190800 23003KT 1/2SM FG BKN002 BKN070=

USA.gov is the U.S. government's official web portal to all federal, state and local government web resources and services.